Time,TemperatureF,DewpointF,PressureIn,WindDirection,WindDirectionDegrees,WindSpeedMPH,WindSpeedGustMPH,Humidity,HourlyPrecipIn,Conditions,Clouds,dailyrainin,SoftwareType,DateUTC
2014-09-02 02:54:00,56.0,38.0,-100.00,North,-999,0.0,0.0,51,-99.99,,,-99.99,,2014-09-02 09:54:00,
2014-09-02 03:03:00,56.0,38.0,-100.00,North,-999,0.0,0.0,51,-99.99,,,-99.99,,2014-09-02 10:03:00,
2014-09-02 03:13:00,56.0,38.0,-100.00,North,-999,0.0,0.0,51,-99.99,,,-99.99,,2014-09-02 10:13:00,
2014-09-02 07:02:00,51.0,38.0,-100.00,North,-999,0.0,0.0,62,-99.99,,,-99.99,,2014-09-02 14:02:00,
2014-09-02 07:42:00,53.0,38.0,-100.00,West,267,1.0,7.0,57,-99.99,,,-99.99,,2014-09-02 14:42:00,
2014-09-02 07:53:00,53.0,38.0,-100.00,West,267,1.0,7.0,57,-99.99,,,-99.99,,2014-09-02 14:53:00,
2014-09-02 08:11:00,62.0,37.0,-100.00,West,271,2.0,7.0,40,-99.99,,,-99.99,,2014-09-02 15:11:00,
2014-09-02 08:12:00,56.0,38.0,-100.00,WNW,289,3.0,8.0,51,-99.99,,,-99.99,,2014-09-02 15:12:00,
2014-09-02 09:04:00,62.0,37.0,-100.00,West,271,2.0,7.0,40,-99.99,,,-99.99,,2014-09-02 16:04:00,
2014-09-02 10:23:00,-999.0,-99.9,-100.00,NW,315,2.0,6.0,-999,-99.99,,,-99.99,,2014-09-02 17:23:00,
2014-09-02 10:34:00,-999.0,-99.9,-100.00,NW,315,2.0,6.0,-999,-99.99,,,-99.99,,2014-09-02 17:34:00,
2014-09-02 10:43:00,-999.0,-99.9,-100.00,NW,315,2.0,6.0,-999,-99.99,,,-99.99,,2014-09-02 17:43:00,
2014-09-02 10:53:00,-999.0,-99.9,-100.00,NW,315,2.0,6.0,-999,-99.99,,,-99.99,,2014-09-02 17:53:00,
2014-09-02 11:03:00,-999.0,-99.9,-100.00,NW,315,3.0,9.0,-999,-99.99,,,-99.99,,2014-09-02 18:03:00,
2014-09-02 11:13:00,-999.0,-99.9,-100.00,NW,315,3.0,9.0,-999,-99.99,,,-99.99,,2014-09-02 18:13:00,
2014-09-02 11:23:00,-999.0,-99.9,-100.00,NW,315,3.0,9.0,-999,-99.99,,,-99.99,,2014-09-02 18:23:00,
2014-09-02 11:33:00,-999.0,-99.9,-100.00,NW,315,3.0,9.0,-999,-99.99,,,-99.99,,2014-09-02 18:33:00,
2014-09-02 11:53:00,-999.0,-99.9,-100.00,NW,323,5.0,10.0,-999,-99.99,,,-99.99,,2014-09-02 18:53:00,
2014-09-02 12:02:00,-999.0,-99.9,-100.00,NW,323,5.0,10.0,-999,-99.99,,,-99.99,,2014-09-02 19:02:00,
2014-09-02 12:12:00,-999.0,-99.9,-100.00,North,356,3.0,7.0,-999,-99.99,,,-99.99,,2014-09-02 19:12:00,
2014-09-02 12:22:00,-999.0,-99.9,-100.00,North,356,3.0,7.0,-999,-99.99,,,-99.99,,2014-09-02 19:22:00,
2014-09-02 12:33:00,-999.0,-99.9,-100.00,North,352,3.0,8.0,-999,-99.99,,,-99.99,,2014-09-02 19:33:00,
2014-09-02 12:43:00,-999.0,-99.9,-100.00,North,352,3.0,8.0,-999,-99.99,,,-99.99,,2014-09-02 19:43:00,
2014-09-02 12:53:00,-999.0,-99.9,-100.00,NNE,13,2.0,5.0,-999,-99.99,,,-99.99,,2014-09-02 19:53:00,
2014-09-02 13:03:00,-999.0,-99.9,-100.00,NNE,13,2.0,5.0,-999,-99.99,,,-99.99,,2014-09-02 20:03:00,
2014-09-02 13:12:00,-999.0,-99.9,-100.00,NNW,333,5.0,9.0,-999,-99.99,,,-99.99,,2014-09-02 20:12:00,
2014-09-02 13:23:00,-999.0,-99.9,-100.00,NNW,333,5.0,9.0,-999,-99.99,,,-99.99,,2014-09-02 20:23:00,
2014-09-02 13:33:00,-999.0,-99.9,-100.00,North,7,3.0,7.0,-999,-99.99,,,-99.99,,2014-09-02 20:33:00,
2014-09-02 13:42:00,-999.0,-99.9,-100.00,North,7,3.0,7.0,-999,-99.99,,,-99.99,,2014-09-02 20:42:00,
2014-09-02 13:53:00,-999.0,-99.9,-100.00,NW,323,5.0,9.0,-999,-99.99,,,-99.99,,2014-09-02 20:53:00,
2014-09-02 14:02:00,-999.0,-99.9,-100.00,NW,323,5.0,9.0,-999,-99.99,,,-99.99,,2014-09-02 21:02:00,
2014-09-02 14:22:00,-999.0,-99.9,-100.00,North,4,4.0,9.0,-999,-99.99,,,-99.99,,2014-09-02 21:22:00,
2014-09-02 14:34:00,-999.0,-99.9,-100.00,NW,326,4.0,11.0,-999,-99.99,,,-99.99,,2014-09-02 21:34:00,
2014-09-02 14:55:00,-999.0,-99.9,-100.00,West,281,4.0,9.0,-999,-99.99,,,-99.99,,2014-09-02 21:55:00,
2014-09-02 15:04:00,-999.0,-99.9,-100.00,West,281,4.0,9.0,-999,-99.99,,,-99.99,,2014-09-02 22:04:00,
2014-09-02 15:13:00,-999.0,-99.9,-100.00,NNW,347,6.0,10.0,-999,-99.99,,,-99.99,,2014-09-02 22:13:00,
2014-09-02 15:24:00,-999.0,-99.9,-100.00,NNW,347,6.0,10.0,-999,-99.99,,,-99.99,,2014-09-02 22:24:00,
2014-09-02 15:33:00,-999.0,-99.9,-100.00,NNW,347,6.0,10.0,-999,-99.99,,,-99.99,,2014-09-02 22:33:00,
2014-09-02 15:43:00,-999.0,-99.9,-100.00,NNW,347,6.0,10.0,-999,-99.99,,,-99.99,,2014-09-02 22:43:00,
2014-09-02 16:03:00,-999.0,-99.9,-100.00,West,277,11.0,19.0,-999,-99.99,,,-99.99,,2014-09-02 23:03:00,
2014-09-02 16:13:00,-999.0,-99.9,-100.00,West,277,11.0,19.0,-999,-99.99,,,-99.99,,2014-09-02 23:13:00,
2014-09-02 16:23:00,-999.0,-99.9,-100.00,West,268,11.0,16.0,-999,-99.99,,,-99.99,,2014-09-02 23:23:00,
2014-09-02 16:34:00,-999.0,-99.9,-100.00,West,268,11.0,16.0,-999,-99.99,,,-99.99,,2014-09-02 23:34:00,
2014-09-02 16:43:00,-999.0,-99.9,-100.00,West,268,11.0,16.0,-999,-99.99,,,-99.99,,2014-09-02 23:43:00,
2014-09-02 16:52:00,-999.0,-99.9,-100.00,West,268,11.0,16.0,-999,-99.99,,,-99.99,,2014-09-02 23:52:00,
2014-09-02 17:02:00,-999.0,-99.9,-100.00,West,277,12.0,18.0,-999,-99.99,,,-99.99,,2014-09-03 00:02:00,
2014-09-02 17:12:00,-999.0,-99.9,-100.00,West,277,12.0,18.0,-999,-99.99,,,-99.99,,2014-09-03 00:12:00,
2014-09-02 17:23:00,-999.0,-99.9,-100.00,WNW,287,10.0,16.0,-999,-99.99,,,-99.99,,2014-09-03 00:23:00,
2014-09-02 17:32:00,-999.0,-99.9,-100.00,WNW,287,10.0,16.0,-999,-99.99,,,-99.99,,2014-09-03 00:32:00,
2014-09-02 17:42:00,-999.0,-99.9,-100.00,West,268,12.0,17.0,-999,-99.99,,,-99.99,,2014-09-03 00:42:00,
2014-09-02 17:52:00,-999.0,-99.9,-100.00,West,268,12.0,17.0,-999,-99.99,,,-99.99,,2014-09-03 00:52:00,
2014-09-02 18:02:00,-999.0,-99.9,-100.00,West,272,9.0,15.0,-999,-99.99,,,-99.99,,2014-09-03 01:02:00,
2014-09-02 18:12:00,-999.0,-99.9,-100.00,West,272,9.0,15.0,-999,-99.99,,,-99.99,,2014-09-03 01:12:00,
2014-09-02 18:23:00,-999.0,-99.9,-100.00,WSW,244,9.0,15.0,-999,-99.99,,,-99.99,,2014-09-03 01:23:00,
2014-09-02 18:32:00,-999.0,-99.9,-100.00,WSW,244,9.0,15.0,-999,-99.99,,,-99.99,,2014-09-03 01:32:00,